createdAt,value
2019-03-03T00:00:35.726Z,90.90
2019-03-03T00:03:04.331Z,90.90
2019-03-03T00:05:32.761Z,90.90
2019-03-03T00:08:01.185Z,90.80
2019-03-03T00:10:29.637Z,90.70
2019-03-03T00:12:58.071Z,90.80
2019-03-03T00:15:26.513Z,90.60
2019-03-03T00:17:54.990Z,90.50
2019-03-03T00:20:23.514Z,90.40
2019-03-03T00:22:51.971Z,90.20
2019-03-03T00:25:20.392Z,90.10
2019-03-03T00:27:48.997Z,90.10
2019-03-03T00:30:20.742Z,90.00
2019-03-03T00:32:49.205Z,89.90
2019-03-03T00:35:17.795Z,90.00
2019-03-03T00:37:53.842Z,89.70
2019-03-03T00:40:39.334Z,89.40
2019-03-03T00:43:27.478Z,89.50
2019-03-03T00:46:13.777Z,89.10
2019-03-03T00:48:43.911Z,88.80
2019-03-03T00:51:14.318Z,88.70
2019-03-03T00:53:56.347Z,88.80
2019-03-03T00:59:05.158Z,89.00
2019-03-03T01:01:37.931Z,89.40
2019-03-03T01:04:11.142Z,89.50
2019-03-03T01:06:41.186Z,89.60
2019-03-03T01:09:34.321Z,89.70
2019-03-03T01:12:22.666Z,89.50
2019-03-03T01:14:58.522Z,89.30
2019-03-03T01:17:40.593Z,89.60
2019-03-03T01:20:14.674Z,89.70
2019-03-03T01:22:56.799Z,89.50
2019-03-03T01:25:25.322Z,89.10
2019-03-03T01:27:53.797Z,88.70
2019-03-03T01:30:22.215Z,88.70
2019-03-03T01:32:50.700Z,88.80
2019-03-03T01:35:19.233Z,88.70
2019-03-03T01:37:47.718Z,88.70
2019-03-03T01:40:16.128Z,88.60
2019-03-03T01:42:44.554Z,88.60
2019-03-03T01:45:14.813Z,88.60
2019-03-03T01:47:43.316Z,88.70
2019-03-03T01:50:12.600Z,88.70
2019-03-03T01:52:41.248Z,88.90
2019-03-03T01:55:11.898Z,88.90
2019-03-03T01:57:40.411Z,89.00
2019-03-03T02:00:21.325Z,88.90
2019-03-03T02:02:49.921Z,89.00
2019-03-03T02:05:21.099Z,88.80
2019-03-03T02:07:49.612Z,88.70
2019-03-03T02:10:21.327Z,88.60
2019-03-03T02:12:50.009Z,88.50
2019-03-03T02:15:18.798Z,88.40
2019-03-03T02:17:47.277Z,87.80
2019-03-03T02:20:15.887Z,87.50
2019-03-03T02:22:44.290Z,87.00
2019-03-03T02:25:14.253Z,86.80
2019-03-03T02:27:42.662Z,86.60
2019-03-03T02:30:20.217Z,86.80
2019-03-03T02:33:08.059Z,86.70
2019-03-03T02:35:37.815Z,86.70
2019-03-03T02:38:06.282Z,86.70
2019-03-03T02:40:34.741Z,86.50
2019-03-03T02:43:03.161Z,86.50
2019-03-03T02:45:31.672Z,86.50
2019-03-03T02:48:00.246Z,86.40
2019-03-03T02:50:28.692Z,86.20
2019-03-03T02:52:57.113Z,86.00
2019-03-03T02:55:25.527Z,85.60
2019-03-03T02:57:53.975Z,85.70
2019-03-03T03:00:23.220Z,85.60
2019-03-03T03:02:53.307Z,85.50
2019-03-03T03:05:33.587Z,85.60
2019-03-03T03:08:06.367Z,85.60
2019-03-03T03:10:52.778Z,85.70
2019-03-03T03:13:37.946Z,85.90
2019-03-03T03:16:13.621Z,86.00
2019-03-03T03:18:59.568Z,86.10
2019-03-03T03:21:45.876Z,86.00
2019-03-03T03:24:32.471Z,86.90
2019-03-03T03:27:11.605Z,86.60
2019-03-03T03:29:44.175Z,86.70
2019-03-03T03:32:26.063Z,86.80
2019-03-03T03:34:59.122Z,86.80
2019-03-03T03:37:28.450Z,86.80
2019-03-03T03:40:01.219Z,86.80
2019-03-03T03:42:31.649Z,86.90
2019-03-03T03:45:04.826Z,87.00
2019-03-03T03:47:34.885Z,87.20
2019-03-03T03:50:09.077Z,88.00
2019-03-03T03:52:44.730Z,88.00
2019-03-03T03:55:24.652Z,87.50
2019-03-03T03:57:57.295Z,87.50
2019-03-03T04:00:39.222Z,87.30
2019-03-03T04:03:09.378Z,87.10
2019-03-03T04:05:47.957Z,87.00
2019-03-03T04:08:20.896Z,87.00
2019-03-03T04:10:50.955Z,87.10
2019-03-03T04:13:26.984Z,87.00
2019-03-03T04:16:12.427Z,86.90
2019-03-03T04:18:51.070Z,86.80
2019-03-03T04:21:30.119Z,86.80
2019-03-03T04:24:16.190Z,86.90
2019-03-03T04:26:48.905Z,86.80
2019-03-03T04:29:24.958Z,86.80
2019-03-03T04:32:01.014Z,86.80
2019-03-03T04:37:19.146Z,86.80
2019-03-03T04:40:05.719Z,86.90
2019-03-03T04:42:41.542Z,86.70
2019-03-03T04:45:29.459Z,86.50
2019-03-03T04:48:08.539Z,86.60
2019-03-03T04:50:41.219Z,86.50
2019-03-03T04:53:17.534Z,86.30
2019-03-03T04:55:47.638Z,86.30
2019-03-03T04:58:34.274Z,86.30
2019-03-03T05:03:51.478Z,85.90
2019-03-03T05:06:21.564Z,85.90
2019-03-03T05:08:51.614Z,86.00
2019-03-03T05:12:10.125Z,85.80
2019-03-03T05:14:44.627Z,85.70
2019-03-03T05:17:31.170Z,85.60
2019-03-03T05:20:01.232Z,85.20
2019-03-03T05:22:29.637Z,85.10
2019-03-03T05:24:58.179Z,85.00
2019-03-03T05:27:26.631Z,84.90
2019-03-03T05:29:55.058Z,84.80
2019-03-03T05:32:23.503Z,85.00
2019-03-03T05:34:51.921Z,85.00
2019-03-03T05:37:20.350Z,84.90
2019-03-03T05:39:48.798Z,84.50
2019-03-03T05:42:17.239Z,84.20
2019-03-03T05:44:45.652Z,84.10
2019-03-03T05:47:14.138Z,83.90
2019-03-03T05:49:42.576Z,83.90
2019-03-03T05:52:11.064Z,83.70
2019-03-03T05:54:39.582Z,83.70
2019-03-03T05:57:07.994Z,83.50
2019-03-03T05:59:36.449Z,83.40
2019-03-03T06:02:04.919Z,83.40
2019-03-03T06:04:33.390Z,83.20
2019-03-03T06:07:01.891Z,83.00
2019-03-03T06:09:30.331Z,82.70
2019-03-03T06:11:58.775Z,82.50
2019-03-03T06:14:27.218Z,82.40
2019-03-03T06:16:55.631Z,82.10
2019-03-03T06:19:24.054Z,82.10
2019-03-03T06:21:52.513Z,81.90
2019-03-03T06:24:20.922Z,82.30
2019-03-03T06:26:49.420Z,83.10
2019-03-03T06:29:17.828Z,83.80
2019-03-03T06:31:46.286Z,84.40
2019-03-03T06:34:14.701Z,84.80
2019-03-03T06:36:43.223Z,85.00
2019-03-03T06:39:11.617Z,85.20
2019-03-03T06:41:40.090Z,85.50
2019-03-03T06:44:08.567Z,85.50
2019-03-03T06:46:37.043Z,85.50
2019-03-03T06:49:05.465Z,85.50
2019-03-03T06:51:33.907Z,85.30
2019-03-03T06:54:02.808Z,85.10
2019-03-03T06:56:33.359Z,84.90
2019-03-03T06:59:01.826Z,84.90
2019-03-03T07:01:30.231Z,84.90
2019-03-03T07:03:58.697Z,84.70
2019-03-03T07:06:27.098Z,84.70
2019-03-03T07:08:55.544Z,84.90
2019-03-03T07:11:24.035Z,84.90
2019-03-03T07:13:52.613Z,84.90
2019-03-03T07:16:21.090Z,84.70
2019-03-03T07:18:49.567Z,84.50
2019-03-03T07:21:18.021Z,84.60
2019-03-03T07:23:46.442Z,84.50
2019-03-03T07:26:14.881Z,84.40
2019-03-03T07:28:43.318Z,84.10
2019-03-03T07:31:11.744Z,83.70
2019-03-03T07:33:40.202Z,83.50
2019-03-03T07:36:08.635Z,83.10
2019-03-03T07:38:37.114Z,82.90
2019-03-03T07:41:05.532Z,82.70
2019-03-03T07:43:34.064Z,82.30
2019-03-03T07:46:02.487Z,81.90
2019-03-03T07:48:32.519Z,81.60
2019-03-03T07:51:00.949Z,81.00
2019-03-03T07:53:29.413Z,80.60
2019-03-03T07:55:57.828Z,80.20
2019-03-03T07:58:26.313Z,79.90
2019-03-03T08:00:54.747Z,79.40
2019-03-03T08:03:23.307Z,78.90
2019-03-03T08:05:51.833Z,78.70
2019-03-03T08:08:20.277Z,78.60
2019-03-03T08:10:48.787Z,78.70
2019-03-03T08:13:17.202Z,78.60
2019-03-03T08:15:45.678Z,78.40
2019-03-03T08:18:14.270Z,78.80
2019-03-03T08:20:42.752Z,78.20
2019-03-03T08:23:11.234Z,78.00
2019-03-03T08:25:39.685Z,78.10
2019-03-03T08:28:08.133Z,78.00
2019-03-03T08:30:36.641Z,78.00
2019-03-03T08:33:05.201Z,77.90
2019-03-03T08:35:33.699Z,77.60
2019-03-03T08:38:02.195Z,77.60
2019-03-03T08:40:30.681Z,77.30
2019-03-03T08:43:09.610Z,77.10
2019-03-03T08:48:53.034Z,76.80
2019-03-03T08:51:23.160Z,76.50
2019-03-03T08:53:53.349Z,76.30
2019-03-03T08:56:41.618Z,76.70
2019-03-03T08:59:14.240Z,77.00
2019-03-03T09:01:49.781Z,77.60
2019-03-03T09:04:36.054Z,77.60
2019-03-03T09:07:12.136Z,77.70
2019-03-03T09:09:42.204Z,77.80
2019-03-03T09:12:30.390Z,78.20
2019-03-03T09:15:06.323Z,77.70
2019-03-03T09:17:39.206Z,77.50
2019-03-03T09:20:27.007Z,77.00
2019-03-03T09:23:06.166Z,76.70
2019-03-03T09:25:49.535Z,76.80
2019-03-03T09:28:35.198Z,76.90
2019-03-03T09:31:15.235Z,76.00
2019-03-03T09:33:51.060Z,75.30
2019-03-03T09:36:39.266Z,75.20
2019-03-03T09:39:17.184Z,75.80
2019-03-03T09:41:47.324Z,75.90
2019-03-03T09:44:27.177Z,76.50
2019-03-03T09:47:00.090Z,76.60
2019-03-03T09:49:33.320Z,76.60
2019-03-03T09:52:03.512Z,76.30
2019-03-03T09:54:45.366Z,76.20
2019-03-03T09:57:30.562Z,75.80
2019-03-03T10:00:09.215Z,75.60
2019-03-03T10:02:42.032Z,76.10
2019-03-03T10:05:20.094Z,76.20
2019-03-03T10:07:59.215Z,75.60
2019-03-03T10:10:38.018Z,75.50
2019-03-03T10:13:20.449Z,75.30
2019-03-03T10:15:50.567Z,75.10
2019-03-03T10:18:20.717Z,74.40
2019-03-03T10:20:50.878Z,74.40
2019-03-03T10:23:21.266Z,74.60
2019-03-03T10:26:07.796Z,74.30
2019-03-03T10:28:37.908Z,73.80
2019-03-03T10:31:08.109Z,74.80
2019-03-03T10:33:38.226Z,73.40
2019-03-03T10:36:11.196Z,73.50
2019-03-03T10:38:59.627Z,73.40
2019-03-03T10:41:46.166Z,72.80
2019-03-03T10:44:16.382Z,71.50
2019-03-03T10:46:59.684Z,71.40
2019-03-03T10:49:32.008Z,71.40
2019-03-03T10:52:02.088Z,70.50
2019-03-03T10:54:47.494Z,69.50
2019-03-03T10:57:17.673Z,69.20
2019-03-03T11:02:52.087Z,69.50
2019-03-03T11:05:28.723Z,68.60
2019-03-03T11:07:58.862Z,68.70
2019-03-03T11:10:38.052Z,69.20
2019-03-03T11:13:17.269Z,69.50
2019-03-03T11:15:47.410Z,69.50
2019-03-03T11:18:17.484Z,69.50
2019-03-03T11:20:47.634Z,70.20
2019-03-03T11:23:32.010Z,70.10
2019-03-03T11:26:11.232Z,70.40
2019-03-03T11:28:45.523Z,70.80
2019-03-03T11:31:15.598Z,70.70
2019-03-03T11:33:45.726Z,70.90
2019-03-03T11:36:31.156Z,69.80
2019-03-03T11:39:02.304Z,69.40
2019-03-03T11:41:32.421Z,69.90
2019-03-03T11:44:12.173Z,70.40
2019-03-03T11:47:00.725Z,69.70
2019-03-03T11:49:31.397Z,70.10
2019-03-03T11:52:08.463Z,69.60
2019-03-03T11:54:41.722Z,70.00
2019-03-03T11:57:21.827Z,70.00
2019-03-03T12:00:04.142Z,69.90
2019-03-03T12:05:40.077Z,70.20
2019-03-03T12:08:13.924Z,69.80
2019-03-03T12:10:48.117Z,70.20
2019-03-03T12:13:31.048Z,70.20
2019-03-03T12:16:10.708Z,70.40
2019-03-03T12:18:51.076Z,70.40
2019-03-03T12:21:24.310Z,70.70
2019-03-03T12:23:57.185Z,70.60
2019-03-03T12:26:36.300Z,70.30
2019-03-03T12:29:12.795Z,70.80
2019-03-03T12:31:52.066Z,71.30
2019-03-03T12:34:25.054Z,71.40
2019-03-03T12:36:57.181Z,71.90
2019-03-03T12:39:29.546Z,72.00
2019-03-03T12:41:59.855Z,72.30
2019-03-03T12:44:30.397Z,72.30
2019-03-03T12:47:06.410Z,73.00
2019-03-03T12:49:45.808Z,73.10
2019-03-03T12:52:18.972Z,72.80
2019-03-03T12:54:48.540Z,72.80
2019-03-03T12:57:18.923Z,73.50
2019-03-03T13:00:11.460Z,73.80
2019-03-03T13:02:58.383Z,73.60
2019-03-03T13:05:28.895Z,73.50
2019-03-03T13:08:05.939Z,73.70
2019-03-03T13:10:36.560Z,73.80
2019-03-03T13:13:10.413Z,74.20
2019-03-03T13:15:53.085Z,74.20
2019-03-03T13:18:25.231Z,74.00
2019-03-03T13:20:58.814Z,74.00
2019-03-03T13:23:47.470Z,73.90
2019-03-03T13:26:37.157Z,74.10
2019-03-03T13:29:07.401Z,74.40
2019-03-03T13:31:39.873Z,74.70
2019-03-03T13:34:25.864Z,74.20
2019-03-03T13:36:55.944Z,73.90
2019-03-03T13:39:41.489Z,74.10
2019-03-03T13:42:17.605Z,73.90
2019-03-03T13:44:46.116Z,73.30
2019-03-03T13:47:14.661Z,73.20
2019-03-03T13:49:43.122Z,73.20
2019-03-03T13:52:11.825Z,73.10
2019-03-03T13:54:40.312Z,73.30
2019-03-03T13:57:08.786Z,73.20
2019-03-03T13:59:37.274Z,73.20
2019-03-03T14:02:05.966Z,73.80
2019-03-03T14:04:34.597Z,74.30
2019-03-03T14:07:03.069Z,74.80
2019-03-03T14:09:31.483Z,75.10
2019-03-03T14:12:00.016Z,75.30
2019-03-03T14:14:28.469Z,75.20
2019-03-03T14:16:57.052Z,75.20
2019-03-03T14:19:25.537Z,74.90
2019-03-03T14:21:53.967Z,75.20
2019-03-03T14:24:22.429Z,75.20
2019-03-03T14:26:50.853Z,74.80
2019-03-03T14:29:19.440Z,74.70
2019-03-03T14:31:48.163Z,74.40
2019-03-03T14:34:16.614Z,74.00
2019-03-03T14:36:45.147Z,74.30
2019-03-03T14:39:13.693Z,74.10
2019-03-03T14:41:42.229Z,73.90
2019-03-03T14:44:10.706Z,73.90
2019-03-03T14:46:39.141Z,73.50
2019-03-03T14:49:07.638Z,73.70
2019-03-03T14:51:36.093Z,73.60
2019-03-03T14:54:04.582Z,73.40
2019-03-03T14:56:33.049Z,73.40
2019-03-03T14:59:01.597Z,73.50
2019-03-03T15:01:30.096Z,73.40
2019-03-03T15:03:58.674Z,74.00
2019-03-03T15:06:28.079Z,72.70
2019-03-03T15:08:56.585Z,72.80
2019-03-03T15:11:25.078Z,72.80
2019-03-03T15:13:53.526Z,72.70
2019-03-03T15:16:22.030Z,73.30
2019-03-03T15:18:50.508Z,73.60
2019-03-03T15:21:25.007Z,73.90
2019-03-03T15:23:49.240Z,74.20
2019-03-03T15:26:17.783Z,74.20
2019-03-03T15:28:46.318Z,74.30
2019-03-03T15:31:14.762Z,74.50
2019-03-03T15:33:43.195Z,74.40
2019-03-03T15:36:11.625Z,74.80
2019-03-03T15:38:40.072Z,74.70
2019-03-03T15:41:08.575Z,75.00
2019-03-03T15:43:37.060Z,75.30
2019-03-03T15:46:05.495Z,75.10
2019-03-03T15:48:34.032Z,74.80
2019-03-03T15:51:02.443Z,74.50
2019-03-03T15:53:31.056Z,74.50
2019-03-03T15:55:59.514Z,74.70
2019-03-03T15:58:28.089Z,74.60
2019-03-03T16:00:56.586Z,74.70
2019-03-03T16:03:25.031Z,74.60
2019-03-03T16:05:53.493Z,74.80
2019-03-03T16:08:22.048Z,74.70
2019-03-03T16:10:52.005Z,74.60
2019-03-03T16:13:20.568Z,74.60
2019-03-03T16:15:48.990Z,74.30
2019-03-03T16:18:17.527Z,74.10
2019-03-03T16:20:46.056Z,74.30
2019-03-03T16:23:14.687Z,74.30
2019-03-03T16:25:43.397Z,74.00
2019-03-03T16:28:11.875Z,74.00
2019-03-03T16:30:40.339Z,73.80
2019-03-03T16:33:08.763Z,73.70
2019-03-03T16:35:37.234Z,73.80
2019-03-03T16:38:08.893Z,73.80
2019-03-03T16:40:39.923Z,73.70
2019-03-03T16:43:07.675Z,73.70
2019-03-03T16:45:36.269Z,73.80
2019-03-03T16:48:05.138Z,73.80
2019-03-03T16:50:33.608Z,73.80
2019-03-03T16:53:02.623Z,73.60
2019-03-03T16:55:31.554Z,73.70
2019-03-03T16:57:59.982Z,73.60
2019-03-03T17:00:28.981Z,73.40
2019-03-03T17:03:00.461Z,73.20
2019-03-03T17:05:29.952Z,73.10
2019-03-03T17:07:58.524Z,72.80
2019-03-03T17:10:27.119Z,72.70
2019-03-03T17:12:55.688Z,72.70
2019-03-03T17:15:25.635Z,72.40
2019-03-03T17:17:54.080Z,72.90
2019-03-03T17:20:22.607Z,71.80
2019-03-03T17:22:51.263Z,71.60
2019-03-03T17:25:27.757Z,71.50
2019-03-03T17:27:56.364Z,71.50
2019-03-03T17:30:28.564Z,71.60
2019-03-03T17:32:57.198Z,71.70
2019-03-03T17:35:26.249Z,71.70
2019-03-03T17:37:56.574Z,71.80
2019-03-03T17:40:26.224Z,71.90
2019-03-03T17:42:54.761Z,72.10
2019-03-03T17:45:27.598Z,72.10
2019-03-03T17:47:56.150Z,71.90
2019-03-03T17:50:29.043Z,72.00
2019-03-03T17:52:57.538Z,71.90
2019-03-03T17:55:26.184Z,71.90
2019-03-03T17:57:54.744Z,72.40
2019-03-03T18:00:26.115Z,72.60
2019-03-03T18:02:54.817Z,72.90
2019-03-03T18:05:23.279Z,72.80
2019-03-03T18:07:51.911Z,72.90
2019-03-03T18:10:20.644Z,73.70
2019-03-03T18:12:49.124Z,73.20
2019-03-03T18:15:18.116Z,73.10
2019-03-03T18:17:46.765Z,72.90
2019-03-03T18:20:22.392Z,72.80
2019-03-03T18:22:52.502Z,72.90
2019-03-03T18:25:21.690Z,72.80
2019-03-03T18:27:50.396Z,72.60
2019-03-03T18:30:24.952Z,72.70
2019-03-03T18:32:53.567Z,72.50
2019-03-03T18:35:22.137Z,72.20
2019-03-03T18:37:55.898Z,72.10
2019-03-03T18:40:25.352Z,71.90
2019-03-03T18:42:53.912Z,71.80
2019-03-03T18:45:23.396Z,71.60
2019-03-03T18:47:51.954Z,71.30
2019-03-03T18:50:25.343Z,71.10
2019-03-03T18:52:53.883Z,71.20
2019-03-03T18:55:22.300Z,71.10
2019-03-03T18:57:53.661Z,70.70
2019-03-03T19:00:26.874Z,70.90
2019-03-03T19:02:55.420Z,70.70
2019-03-03T19:05:24.020Z,70.50
2019-03-03T19:07:52.756Z,70.40
2019-03-03T19:10:29.683Z,70.20
2019-03-03T19:12:58.251Z,70.30
2019-03-03T19:15:26.865Z,70.20
2019-03-03T19:17:55.308Z,70.20
2019-03-03T19:20:24.069Z,70.10
2019-03-03T19:22:52.694Z,70.30
2019-03-03T19:25:21.475Z,70.70
2019-03-03T19:27:50.020Z,70.80
2019-03-03T19:30:23.190Z,71.10
2019-03-03T19:32:58.633Z,71.20
2019-03-03T19:35:31.268Z,71.30
2019-03-03T19:38:00.523Z,71.30
2019-03-03T19:40:32.703Z,72.00
2019-03-03T19:43:01.960Z,71.20
2019-03-03T19:45:36.693Z,71.00
2019-03-03T19:48:13.794Z,71.10
2019-03-03T19:50:43.580Z,70.90
2019-03-03T19:53:13.158Z,70.90
2019-03-03T19:55:43.681Z,70.70
2019-03-03T19:58:15.052Z,70.60
2019-03-03T20:00:44.653Z,70.80
2019-03-03T20:03:17.023Z,70.70
2019-03-03T20:05:46.370Z,70.70
2019-03-03T20:08:16.241Z,70.60
2019-03-03T20:10:48.019Z,70.80
2019-03-03T20:13:17.726Z,71.10
2019-03-03T20:15:46.720Z,71.30
2019-03-03T20:18:15.902Z,71.10
2019-03-03T20:20:44.947Z,71.40
2019-03-03T20:23:13.498Z,71.20
2019-03-03T20:25:42.102Z,71.20
2019-03-03T20:28:10.999Z,71.40
2019-03-03T20:30:39.750Z,71.50
2019-03-03T20:33:08.608Z,71.40
2019-03-03T20:35:38.753Z,71.50
2019-03-03T20:38:09.118Z,71.60
2019-03-03T20:40:39.165Z,71.40
2019-03-03T20:43:10.475Z,71.30
2019-03-03T20:45:39.497Z,71.50
2019-03-03T20:48:08.750Z,71.40
2019-03-03T20:50:39.308Z,71.30
2019-03-03T20:53:11.004Z,71.30
2019-03-03T20:55:40.801Z,71.30
2019-03-03T20:58:10.613Z,71.20
2019-03-03T21:00:42.629Z,70.80
2019-03-03T21:03:11.839Z,70.80
2019-03-03T21:05:43.437Z,70.70
2019-03-03T21:08:12.346Z,70.70
2019-03-03T21:10:46.166Z,70.50
2019-03-03T21:13:16.005Z,70.60
2019-03-03T21:15:45.448Z,70.60
2019-03-03T21:18:14.290Z,70.70
2019-03-03T21:20:43.693Z,70.60
2019-03-03T21:23:12.109Z,70.60
2019-03-03T21:25:40.742Z,70.90
2019-03-03T21:28:09.365Z,70.90
2019-03-03T21:30:37.934Z,70.40
2019-03-03T21:33:08.503Z,70.50
2019-03-03T21:35:38.364Z,70.70
2019-03-03T21:38:10.948Z,70.50
2019-03-03T21:40:40.036Z,70.40
2019-03-03T21:43:08.455Z,70.40
2019-03-03T21:45:36.998Z,70.40
2019-03-03T21:48:05.568Z,70.50
2019-03-03T21:50:34.046Z,70.60
2019-03-03T21:53:02.546Z,70.60
2019-03-03T21:55:31.072Z,70.80
2019-03-03T21:57:59.555Z,70.70
2019-03-03T22:00:32.849Z,70.90
2019-03-03T22:03:01.348Z,70.90
2019-03-03T22:05:30.030Z,71.00
2019-03-03T22:07:58.472Z,71.10
2019-03-03T22:10:30.221Z,72.10
2019-03-03T22:13:00.558Z,71.90
2019-03-03T22:15:29.029Z,72.30
2019-03-03T22:17:57.585Z,72.70
2019-03-03T22:20:26.079Z,72.90
2019-03-03T22:22:54.655Z,73.10
2019-03-03T22:25:23.088Z,73.00
2019-03-03T22:27:51.630Z,73.10
2019-03-03T22:30:20.536Z,73.80
2019-03-03T22:32:49.122Z,72.90
2019-03-03T22:35:18.465Z,72.60
2019-03-03T22:37:47.032Z,72.60
2019-03-03T22:40:19.811Z,73.00
2019-03-03T22:42:48.666Z,73.30
2019-03-03T22:45:17.873Z,73.70
2019-03-03T22:47:46.788Z,74.10
2019-03-03T22:50:16.769Z,74.50
2019-03-03T22:52:45.256Z,74.60
2019-03-03T22:55:16.044Z,74.70
2019-03-03T22:57:44.582Z,74.60
2019-03-03T23:00:43.274Z,74.40
2019-03-03T23:03:12.780Z,74.20
2019-03-03T23:06:09.907Z,74.20
2019-03-03T23:08:48.848Z,74.20
2019-03-03T23:11:42.950Z,74.30
2019-03-03T23:14:29.434Z,74.20
2019-03-03T23:17:06.621Z,74.20
2019-03-03T23:19:44.009Z,74.00
2019-03-03T23:22:33.732Z,73.90
2019-03-03T23:25:20.118Z,74.00
2019-03-03T23:27:48.567Z,74.10
2019-03-03T23:30:21.402Z,74.40
2019-03-03T23:32:49.912Z,74.80
2019-03-03T23:35:18.493Z,74.70
2019-03-03T23:37:47.080Z,74.50
2019-03-03T23:40:15.538Z,74.10
2019-03-03T23:42:43.979Z,73.50
2019-03-03T23:45:12.538Z,73.00
2019-03-03T23:47:41.053Z,72.40
2019-03-03T23:50:10.023Z,71.70
2019-03-03T23:52:38.446Z,70.80
2019-03-03T23:55:08.513Z,69.90
2019-03-03T23:57:36.977Z,69.20
